DAUH/HME METAR and TAF weather

Enter ICAO airport designator
Station Type Date Time Source
DAUH METAR 2019/04/26 04:00 UTC NOAA

DAUH 260400Z 00000KT CAVOK 19/02 Q1013


Station Type Date Time Source
DAUH Decoded METAR 2019/04/26 04:00 UTC NOAA

Hassi-Messaoud, Algeria (DAUH) 31-40N 006-09E 142M
Apr 26, 2019 - 12:00 AM EDT / 2019.04.26 0400 UTC
Wind: Calm:0
Visibility: greater than 7 mile(s):0
Temperature: 66 F (19 C)
Dew Point: 35 F (2 C)
Relative Humidity: 32%
Pressure (altimeter): 29.91 in. Hg (1013 hPa)
ob: DAUH 260400Z 00000KT CAVOK 19/02 Q1013
cycle: 4

Station Type Date Time Source
DAUH TAF 2019/04/25 18:33 UTC NOAA

TAF TAF DAUH 251700Z 2518/2618 18008KT CAVOK
BECMG 2615/2618 04014KT

Example: see airport list